Time;durP1;ratioP1;P1;durP2;ratioP2;P2;SDS_P1;SDS_P2;PMS_P1;PMS_P2;Temp;Humidity;BMP_temperature;BMP_pressure;BME280_temperature;BME280_humidity;BME280_pressure;Samples;Min_cycle;Max_cycle;Signal;HPM_P1;HPM_P2
2022/01/29 00:01:33;;;;;;;72.85;48.08;;;7.20;99.90;;;;;;4925809;28;20771;-87
2022/01/29 00:03:59;;;;;;;71.60;47.20;;;7.20;99.90;;;;;;4927706;28;20075;-86
2022/01/29 00:06:25;;;;;;;66.78;47.80;;;7.20;99.90;;;;;;4911188;28;20498;-88
2022/01/29 00:08:53;;;;;;;68.85;47.63;;;7.20;99.90;;;;;;4922077;28;20495;-86
2022/01/29 00:11:20;;;;;;;68.35;46.90;;;7.20;99.90;;;;;;4913892;28;20437;-85
2022/01/29 00:13:45;;;;;;;67.93;46.58;;;7.20;99.90;;;;;;4931113;28;20049;-87
2022/01/29 00:16:11;;;;;;;73.40;48.15;;;7.30;99.90;;;;;;4935464;28;20408;-87
2022/01/29 00:18:37;;;;;;;68.68;46.35;;;7.30;99.90;;;;;;4935213;28;21101;-86
2022/01/29 00:21:03;;;;;;;69.75;48.78;;;7.30;99.90;;;;;;4912074;28;20430;-85
2022/01/29 00:23:29;;;;;;;70.03;48.20;;;7.30;99.90;;;;;;4929330;28;20049;-87
2022/01/29 00:25:55;;;;;;;76.47;48.83;;;7.20;99.90;;;;;;4905070;28;20063;-83
2022/01/29 00:28:21;;;;;;;67.53;48.10;;;7.30;99.90;;;;;;4925271;28;20046;-86
2022/01/29 00:30:46;;;;;;;72.47;48.17;;;7.30;99.90;;;;;;4928360;28;20041;-86
2022/01/29 00:33:13;;;;;;;67.30;47.80;;;7.30;99.90;;;;;;4934702;28;20377;-86
2022/01/29 00:35:39;;;;;;;69.88;46.10;;;7.30;99.90;;;;;;4935522;28;20081;-87
2022/01/29 00:38:05;;;;;;;66.03;45.72;;;7.30;99.90;;;;;;4925460;28;20152;-85
2022/01/29 00:40:33;;;;;;;65.20;45.75;;;7.30;99.90;;;;;;4930208;28;20416;-84
2022/01/29 00:42:59;;;;;;;66.50;47.72;;;7.30;99.90;;;;;;4928299;28;20787;-85
2022/01/29 00:45:26;;;;;;;65.03;47.70;;;7.30;99.90;;;;;;4935653;28;20390;-86
2022/01/29 00:47:51;;;;;;;69.63;47.17;;;7.30;99.90;;;;;;4931803;28;20045;-87
2022/01/29 00:50:17;;;;;;;65.20;45.50;;;7.30;99.90;;;;;;4898196;28;20107;-86
2022/01/29 00:52:44;;;;;;;65.70;45.25;;;7.30;99.90;;;;;;4919700;28;20507;-87
2022/01/29 00:55:11;;;;;;;69.72;47.25;;;7.30;99.90;;;;;;4898814;28;20856;-86
2022/01/29 00:57:40;;;;;;;70.18;47.58;;;7.30;99.90;;;;;;4931019;28;20244;-85
2022/01/29 01:00:11;;;;;;;73.05;48.10;;;7.20;99.90;;;;;;4931209;28;20049;-86
2022/01/29 01:02:41;;;;;;;68.57;47.33;;;7.20;99.90;;;;;;4925099;28;20443;-85
2022/01/29 01:05:10;;;;;;;70.85;48.72;;;7.20;99.90;;;;;;4916442;28;20084;-86
2022/01/29 01:07:36;;;;;;;69.47;47.65;;;7.20;99.90;;;;;;4933574;28;20129;-85
2022/01/29 01:10:05;;;;;;;68.18;47.53;;;7.20;99.90;;;;;;4934566;28;20041;-85
2022/01/29 01:12:31;;;;;;;73.38;48.85;;;7.20;99.90;;;;;;4931327;28;20057;-86
2022/01/29 01:14:57;;;;;;;70.40;48.67;;;7.20;99.90;;;;;;4929868;28;20501;-85
2022/01/29 01:17:23;;;;;;;80.43;51.17;;;7.10;99.90;;;;;;4910577;28;20049;-85
2022/01/29 01:19:49;;;;;;;70.47;49.10;;;7.00;99.90;;;;;;4947617;28;20293;-87
2022/01/29 01:22:16;;;;;;;74.93;49.88;;;7.10;99.90;;;;;;4918221;28;20576;-87
2022/01/29 01:24:42;;;;;;;71.30;50.50;;;7.00;99.90;;;;;;4928418;28;20402;-85
2022/01/29 01:27:08;;;;;;;78.25;49.53;;;7.10;99.90;;;;;;4931106;28;20527;-86
2022/01/29 01:29:34;;;;;;;73.05;49.35;;;7.10;99.90;;;;;;4898351;28;20456;-85
2022/01/29 01:32:00;;;;;;;77.38;50.75;;;7.10;99.90;;;;;;4915416;28;20679;-85
2022/01/29 01:34:31;;;;;;;79.28;50.40;;;7.00;99.90;;;;;;4935691;28;20061;-86
2022/01/29 01:37:02;;;;;;;83.10;51.72;;;7.00;99.90;;;;;;4931847;28;20156;-86
2022/01/29 01:39:32;;;;;;;83.50;50.95;;;7.10;99.90;;;;;;4936315;28;20049;-85
2022/01/29 01:42:08;;;;;;;78.85;50.13;;;7.00;99.90;;;;;;4935865;28;20049;-86
2022/01/29 01:44:45;;;;;;;80.70;50.67;;;7.00;99.90;;;;;;4922906;28;20408;-87
2022/01/29 01:47:12;;;;;;;77.75;49.78;;;7.00;99.90;;;;;;4955634;28;20457;-87
2022/01/29 01:49:38;;;;;;;80.70;50.25;;;7.00;99.90;;;;;;4950053;28;20049;-87
2022/01/29 01:52:09;;;;;;;82.63;48.60;;;7.00;99.90;;;;;;4918602;28;20101;-85
2022/01/29 01:54:35;;;;;;;80.25;48.42;;;7.00;99.90;;;;;;4918003;28;20137;-87
2022/01/29 01:57:04;;;;;;;78.00;48.67;;;7.00;99.90;;;;;;4936695;28;20811;-87
2022/01/29 01:59:30;;;;;;;76.78;45.58;;;7.10;99.90;;;;;;4913127;28;20370;-86
2022/01/29 02:01:56;;;;;;;69.57;44.70;;;7.10;99.90;;;;;;4930334;28;20060;-85
2022/01/29 02:04:22;;;;;;;73.65;45.58;;;7.10;99.90;;;;;;4915611;28;20044;-87
2022/01/29 02:06:51;;;;;;;72.43;45.38;;;7.10;99.90;;;;;;4940099;28;20941;-86
2022/01/29 02:09:20;;;;;;;75.07;46.80;;;7.10;99.90;;;;;;4936139;28;20053;-88
2022/01/29 02:11:55;;;;;;;66.88;42.25;;;7.10;99.90;;;;;;4930842;28;20107;-85
2022/01/29 02:14:26;;;;;;;63.67;40.50;;;7.20;99.90;;;;;;4932398;28;20057;-85
2022/01/29 02:16:53;;;;;;;63.33;41.45;;;7.20;99.90;;;;;;4903299;28;20045;-86
2022/01/29 02:19:19;;;;;;;65.22;40.35;;;7.20;99.90;;;;;;4933055;28;20803;-86
2022/01/29 02:21:44;;;;;;;60.28;40.53;;;7.20;99.90;;;;;;4909867;28;20060;-86
2022/01/29 02:24:13;;;;;;;60.75;39.30;;;7.20;99.90;;;;;;4933941;28;20046;-86
2022/01/29 02:26:39;;;;;;;62.17;39.53;;;7.30;99.90;;;;;;4913150;28;20533;-85
2022/01/29 02:29:05;;;;;;;57.53;37.72;;;7.30;99.90;;;;;;4919396;28;20049;-89
2022/01/29 02:31:31;;;;;;;59.13;37.88;;;7.20;99.90;;;;;;4930791;28;20045;-86
2022/01/29 02:33:57;;;;;;;60.45;38.45;;;7.30;99.90;;;;;;4920122;28;21227;-85
2022/01/29 02:36:23;;;;;;;65.40;40.67;;;7.30;99.90;;;;;;4926297;28;20140;-85
2022/01/29 02:38:49;;;;;;;60.55;39.83;;;7.30;99.90;;;;;;4915156;28;20047;-86
2022/01/29 02:41:15;;;;;;;58.55;38.88;;;7.30;99.90;;;;;;4932937;28;21004;-87
2022/01/29 02:43:46;;;;;;;59.88;37.55;;;7.30;99.90;;;;;;4929074;28;20102;-89
2022/01/29 02:48:43;;;;;;;61.42;38.75;;;7.40;99.90;;;;;;4936200;28;20061;-86
2022/01/29 02:51:09;;;;;;;57.47;37.25;;;7.30;99.90;;;;;;4918686;28;20033;-86
2022/01/29 02:53:37;;;;;;;61.10;37.35;;;7.40;99.90;;;;;;4914513;28;20048;-86
2022/01/29 02:56:04;;;;;;;57.80;38.33;;;7.40;99.90;;;;;;4921385;28;20114;-85
2022/01/29 02:58:30;;;;;;;58.17;38.75;;;7.40;99.90;;;;;;4941203;28;20045;-87
2022/01/29 03:00:55;;;;;;;56.90;35.92;;;7.40;99.90;;;;;;4933674;28;20425;-84
2022/01/29 03:03:21;;;;;;;60.03;37.28;;;7.40;99.90;;;;;;4934387;28;20063;-86
2022/01/29 03:05:47;;;;;;;58.72;38.95;;;7.50;99.90;;;;;;4897453;28;20037;-86
2022/01/29 03:08:13;;;;;;;59.22;39.72;;;7.50;99.90;;;;;;4895911;28;20795;-87
2022/01/29 03:10:39;;;;;;;61.03;38.78;;;7.40;99.90;;;;;;4911614;28;20104;-88
2022/01/29 03:13:05;;;;;;;59.42;37.55;;;7.40;99.90;;;;;;4928524;28;20122;-86
2022/01/29 03:15:31;;;;;;;60.83;38.42;;;7.50;99.90;;;;;;4917283;28;20560;-87
2022/01/29 03:17:57;;;;;;;56.38;36.10;;;7.50;99.90;;;;;;4918610;28;20849;-86
2022/01/29 03:20:23;;;;;;;58.45;37.13;;;7.50;99.90;;;;;;4948262;28;20060;-85
2022/01/29 03:22:49;;;;;;;56.10;36.15;;;7.50;99.90;;;;;;4915757;28;20066;-86
2022/01/29 03:25:16;;;;;;;56.28;36.97;;;7.50;99.90;;;;;;4900555;28;20056;-85
2022/01/29 03:27:42;;;;;;;54.97;35.22;;;7.60;99.90;;;;;;4941032;28;20500;-86
2022/01/29 03:30:09;;;;;;;53.28;36.30;;;7.60;99.90;;;;;;4897123;28;20872;-86
2022/01/29 03:32:36;;;;;;;55.30;36.30;;;7.60;99.90;;;;;;4931526;28;20067;-86
2022/01/29 03:35:03;;;;;;;50.90;33.42;;;7.70;99.90;;;;;;4928226;28;20057;-87
2022/01/29 03:37:29;;;;;;;52.13;34.28;;;7.70;99.90;;;;;;4913651;28;20053;-85
2022/01/29 03:40:02;;;;;;;50.95;33.15;;;7.70;99.90;;;;;;4935904;28;20056;-85
2022/01/29 03:42:31;;;;;;;48.35;33.58;;;7.60;99.90;;;;;;4936715;28;20049;-83
2022/01/29 03:44:58;;;;;;;50.67;33.05;;;7.70;99.90;;;;;;4922828;28;20137;-85
2022/01/29 03:47:24;;;;;;;49.58;34.72;;;7.70;99.90;;;;;;4933895;28;20593;-87
2022/01/29 03:49:50;;;;;;;50.35;32.35;;;7.70;99.90;;;;;;4908638;28;20055;-85
2022/01/29 03:52:16;;;;;;;50.47;33.72;;;7.70;99.90;;;;;;4945179;28;20079;-86
2022/01/29 03:54:43;;;;;;;54.08;33.38;;;7.70;99.90;;;;;;4928504;28;20045;-85
2022/01/29 03:57:09;;;;;;;57.63;35.78;;;7.80;99.90;;;;;;4914818;28;20348;-86
2022/01/29 03:59:35;;;;;;;50.53;32.70;;;7.70;99.90;;;;;;4924460;28;20045;-88
2022/01/29 04:02:01;;;;;;;50.55;34.03;;;7.70;99.90;;;;;;4901446;28;20335;-86
2022/01/29 04:04:27;;;;;;;53.63;34.58;;;7.80;99.90;;;;;;4931060;28;20046;-87
2022/01/29 04:06:53;;;;;;;55.03;34.58;;;7.80;99.90;;;;;;4931976;28;20933;-86
2022/01/29 04:09:20;;;;;;;54.53;34.35;;;7.80;99.90;;;;;;4934638;28;20087;-85
2022/01/29 04:11:46;;;;;;;51.85;33.72;;;7.80;99.90;;;;;;4927324;28;20423;-85
2022/01/29 04:14:17;;;;;;;52.03;33.83;;;7.80;99.90;;;;;;4914366;28;20453;-87
2022/01/29 04:16:44;;;;;;;57.58;35.55;;;7.80;99.90;;;;;;4929146;28;20474;-87
2022/01/29 04:19:10;;;;;;;55.80;34.65;;;7.80;99.90;;;;;;4931769;28;20448;-86
2022/01/29 04:21:41;;;;;;;54.15;34.35;;;7.80;99.90;;;;;;4932775;28;20198;-86
2022/01/29 04:24:07;;;;;;;54.90;35.03;;;7.80;99.90;;;;;;4932229;28;20391;-85
2022/01/29 04:26:34;;;;;;;55.65;34.42;;;7.80;99.90;;;;;;4945748;28;20878;-87
2022/01/29 04:29:08;;;;;;;59.97;34.97;;;7.80;99.90;;;;;;4927223;28;20068;-86
2022/01/29 04:31:43;;;;;;;56.08;35.47;;;7.80;99.90;;;;;;4926410;28;20422;-86
2022/01/29 04:34:09;;;;;;;57.25;34.65;;;7.80;99.90;;;;;;4933545;28;20167;-87
2022/01/29 04:36:38;;;;;;;59.92;34.58;;;7.90;99.90;;;;;;4938045;28;20202;-86
2022/01/29 04:39:04;;;;;;;60.72;35.60;;;7.90;99.90;;;;;;4950023;28;20760;-86
2022/01/29 04:41:30;;;;;;;57.05;34.72;;;7.90;99.90;;;;;;4931975;28;20134;-86
2022/01/29 04:43:56;;;;;;;59.40;35.08;;;7.80;99.90;;;;;;4913580;28;20367;-86
2022/01/29 04:46:22;;;;;;;55.80;36.05;;;7.90;99.90;;;;;;4912083;28;20045;-86
2022/01/29 04:48:47;;;;;;;57.10;35.88;;;7.90;99.90;;;;;;4934184;28;20261;-85
2022/01/29 04:51:15;;;;;;;57.08;35.85;;;7.90;99.90;;;;;;4917805;28;20052;-84
2022/01/29 04:53:41;;;;;;;59.13;35.05;;;7.90;99.90;;;;;;4916005;28;20309;-86
2022/01/29 04:56:07;;;;;;;61.50;36.72;;;8.00;99.90;;;;;;4902807;28;20057;-89
2022/01/29 04:58:34;;;;;;;59.53;35.47;;;8.00;99.90;;;;;;4928158;28;20045;-86
2022/01/29 05:00:59;;;;;;;60.53;36.85;;;7.90;99.90;;;;;;4933054;28;20048;-84
2022/01/29 05:03:25;;;;;;;59.30;36.75;;;7.90;99.90;;;;;;4949099;28;20353;-85
2022/01/29 05:05:51;;;;;;;65.45;36.92;;;8.00;99.90;;;;;;4902049;28;20051;-85
2022/01/29 05:08:17;;;;;;;63.05;37.10;;;8.00;99.90;;;;;;4931969;28;20057;-85
2022/01/29 05:10:43;;;;;;;65.70;38.45;;;7.90;99.90;;;;;;4922872;28;20096;-84
2022/01/29 05:13:12;;;;;;;61.55;37.72;;;8.00;99.90;;;;;;4936006;28;20050;-85
2022/01/29 05:15:43;;;;;;;60.05;37.03;;;8.00;99.90;;;;;;4937380;28;20056;-87
2022/01/29 05:29:10;;;;;;;59.72;37.03;;;8.00;99.90;;;;;;4932099;28;20080;-86
2022/01/29 05:31:36;;;;;;;58.63;35.97;;;8.00;99.90;;;;;;4936999;28;20435;-86
2022/01/29 05:34:02;;;;;;;59.58;37.55;;;8.00;99.90;;;;;;4935551;28;20117;-87
2022/01/29 05:36:28;;;;;;;57.38;36.70;;;8.00;99.90;;;;;;4942385;28;20591;-87
2022/01/29 05:38:54;;;;;;;59.97;36.50;;;8.00;99.90;;;;;;4937135;28;20049;-87
2022/01/29 05:41:20;;;;;;;56.40;36.38;;;8.00;99.90;;;;;;4934843;28;20831;-86
2022/01/29 05:43:47;;;;;;;58.90;36.00;;;8.00;99.90;;;;;;4907653;28;20348;-87
2022/01/29 05:46:16;;;;;;;58.05;35.38;;;8.10;99.90;;;;;;4936083;28;20072;-86
2022/01/29 05:48:43;;;;;;;55.22;35.67;;;8.10;99.90;;;;;;4941613;28;20148;-86
2022/01/29 05:51:09;;;;;;;55.55;34.35;;;8.10;99.90;;;;;;4946682;28;20044;-86
2022/01/29 05:53:35;;;;;;;57.35;34.25;;;8.10;99.90;;;;;;4937651;28;20798;-85
2022/01/29 05:56:01;;;;;;;55.95;35.10;;;8.20;99.90;;;;;;4919460;28;21683;-86
2022/01/29 05:58:27;;;;;;;53.00;34.17;;;8.10;99.90;;;;;;4935945;28;20550;-86
2022/01/29 06:00:55;;;;;;;50.25;35.08;;;8.20;99.90;;;;;;4931502;28;20579;-87
2022/01/29 06:03:22;;;;;;;59.38;34.38;;;8.20;99.90;;;;;;4939703;28;20131;-86
2022/01/29 06:05:47;;;;;;;48.63;33.58;;;8.20;99.90;;;;;;4949540;28;20783;-85
2022/01/29 06:08:13;;;;;;;47.72;32.80;;;8.30;99.90;;;;;;4963068;28;20056;-86
2022/01/29 06:10:39;;;;;;;51.25;33.67;;;8.30;99.90;;;;;;4935557;28;20071;-85
2022/01/29 06:13:14;;;;;;;50.15;32.05;;;8.30;99.90;;;;;;4965612;28;20041;-87
2022/01/29 06:15:48;;;;;;;44.03;31.45;;;8.30;99.90;;;;;;4952019;28;20506;-86
2022/01/29 06:18:25;;;;;;;45.80;31.35;;;8.30;99.90;;;;;;4950265;28;20456;-86
2022/01/29 06:20:55;;;;;;;43.15;30.70;;;8.40;99.90;;;;;;4928553;28;20832;-86
2022/01/29 06:23:28;;;;;;;39.42;28.95;;;8.40;99.90;;;;;;4915519;28;20056;-87
2022/01/29 06:25:55;;;;;;;40.53;28.52;;;8.40;99.90;;;;;;4934650;28;20063;-85
2022/01/29 06:28:20;;;;;;;42.00;29.00;;;8.50;99.90;;;;;;4922331;28;20163;-86
2022/01/29 06:30:46;;;;;;;41.22;28.98;;;8.50;99.90;;;;;;4917166;28;20071;-86
2022/01/29 06:33:13;;;;;;;36.88;27.33;;;8.50;99.90;;;;;;4921378;28;20394;-86
2022/01/29 06:35:42;;;;;;;38.78;28.20;;;8.50;99.90;;;;;;4932990;28;20045;-85
2022/01/29 06:38:09;;;;;;;36.13;26.52;;;8.60;99.90;;;;;;4936342;28;20768;-86
2022/01/29 06:40:36;;;;;;;40.88;26.65;;;8.60;99.90;;;;;;4927597;28;20045;-86
2022/01/29 06:43:04;;;;;;;34.90;25.02;;;8.70;99.90;;;;;;4915448;28;20797;-86
2022/01/29 06:45:31;;;;;;;33.90;24.60;;;8.70;99.90;;;;;;4919331;28;20772;-85
2022/01/29 06:47:57;;;;;;;37.67;25.15;;;8.70;99.90;;;;;;4917996;28;20053;-85
2022/01/29 06:50:23;;;;;;;35.85;24.83;;;8.80;99.90;;;;;;4935152;28;20678;-87
2022/01/29 06:52:49;;;;;;;32.92;24.55;;;8.70;99.90;;;;;;4903240;28;20041;-85
2022/01/29 06:55:15;;;;;;;32.65;23.00;;;8.80;99.90;;;;;;4924415;28;20486;-86
2022/01/29 06:57:41;;;;;;;36.55;23.50;;;8.80;99.90;;;;;;4931161;28;20073;-87
2022/01/29 07:00:08;;;;;;;31.17;23.00;;;8.80;99.90;;;;;;4942094;28;20038;-88
2022/01/29 07:02:35;;;;;;;30.98;22.02;;;8.90;99.90;;;;;;4921782;28;20098;-87
2022/01/29 07:05:01;;;;;;;29.65;20.77;;;8.90;99.90;;;;;;4921770;28;20056;-86
2022/01/29 07:07:27;;;;;;;32.33;21.40;;;8.80;99.90;;;;;;4935519;28;20059;-85
2022/01/29 07:09:53;;;;;;;32.30;21.60;;;8.90;99.90;;;;;;4943400;28;20048;-84
2022/01/29 07:12:19;;;;;;;33.78;21.10;;;8.90;99.90;;;;;;4931523;28;20076;-86
2022/01/29 07:14:49;;;;;;;31.23;21.65;;;9.00;99.90;;;;;;4928541;28;20398;-83
2022/01/29 07:17:17;;;;;;;28.33;21.08;;;8.90;99.90;;;;;;4929965;28;20084;-83
2022/01/29 07:19:44;;;;;;;29.95;20.17;;;9.00;99.90;;;;;;4927171;28;20049;-84
2022/01/29 07:22:11;;;;;;;27.60;20.10;;;9.00;99.90;;;;;;4926065;28;20130;-84
2022/01/29 07:24:38;;;;;;;26.58;19.73;;;9.00;99.90;;;;;;4936371;28;20076;-87
2022/01/29 07:27:05;;;;;;;29.17;20.35;;;9.00;99.90;;;;;;4932041;28;20078;-84
2022/01/29 07:29:31;;;;;;;29.40;19.02;;;9.00;99.90;;;;;;4902907;28;20147;-86
2022/01/29 07:31:57;;;;;;;25.67;18.88;;;9.00;99.90;;;;;;4919177;28;20056;-84
2022/01/29 07:34:24;;;;;;;28.25;18.35;;;9.00;99.90;;;;;;4864735;28;1563009;-89
2022/01/29 07:36:54;;;;;;;25.92;18.67;;;9.10;99.90;;;;;;4934178;28;20131;-84
2022/01/29 07:39:22;;;;;;;24.48;18.27;;;9.00;99.90;;;;;;4930792;28;20052;-86
2022/01/29 07:41:48;;;;;;;27.30;17.85;;;9.10;99.90;;;;;;4929981;28;20047;-86
2022/01/29 07:44:15;;;;;;;26.65;17.75;;;9.20;99.90;;;;;;4900385;28;20866;-87
2022/01/29 07:46:41;;;;;;;22.35;17.33;;;9.10;99.90;;;;;;4919451;28;20541;-86
2022/01/29 07:49:07;;;;;;;23.58;16.95;;;9.20;99.90;;;;;;4933530;28;20697;-88
2022/01/29 07:51:33;;;;;;;26.48;17.92;;;9.20;99.90;;;;;;4913569;28;20543;-85
2022/01/29 07:53:59;;;;;;;26.27;17.40;;;9.20;99.90;;;;;;4934827;28;20417;-87
2022/01/29 07:56:25;;;;;;;28.00;17.42;;;9.20;99.90;;;;;;4915011;28;20056;-88
2022/01/29 07:58:51;;;;;;;24.35;17.08;;;9.10;99.90;;;;;;4906769;28;20551;-84
2022/01/29 08:01:18;;;;;;;27.98;17.45;;;9.20;99.90;;;;;;4915001;28;20045;-86
2022/01/29 08:03:46;;;;;;;31.27;18.90;;;9.20;99.90;;;;;;4943722;28;20100;-88
2022/01/29 08:06:16;;;;;;;26.65;18.13;;;9.20;99.90;;;;;;4919061;28;20539;-86
2022/01/29 08:08:42;;;;;;;27.10;17.88;;;9.20;99.90;;;;;;4942287;28;20049;-87
2022/01/29 08:11:09;;;;;;;26.67;19.15;;;9.20;99.90;;;;;;4926126;28;20477;-91
2022/01/29 08:13:35;;;;;;;26.90;19.25;;;9.10;99.90;;;;;;4896064;28;20124;-89
2022/01/29 08:16:02;;;;;;;26.15;17.90;;;9.20;99.90;;;;;;4924107;28;20044;-87
2022/01/29 08:18:29;;;;;;;32.05;18.27;;;9.20;99.90;;;;;;4940784;28;20143;-92
2022/01/29 08:20:55;;;;;;;26.00;18.05;;;9.20;99.90;;;;;;4927607;28;20455;-86
2022/01/29 08:23:21;;;;;;;25.77;17.52;;;9.20;99.90;;;;;;4931415;28;20281;-88
2022/01/29 08:25:48;;;;;;;27.85;18.20;;;9.10;99.90;;;;;;4936736;28;20045;-86
2022/01/29 08:28:14;;;;;;;25.88;17.23;;;9.20;99.90;;;;;;4910477;28;20624;-86
2022/01/29 08:30:40;;;;;;;25.92;17.30;;;9.20;99.90;;;;;;4937785;28;20102;-88
2022/01/29 08:33:06;;;;;;;28.08;17.17;;;9.20;99.90;;;;;;4938678;28;20270;-86
2022/01/29 08:35:33;;;;;;;25.35;16.95;;;9.20;99.90;;;;;;4937932;28;20095;-89
2022/01/29 08:37:59;;;;;;;26.15;17.30;;;9.30;99.90;;;;;;4953088;28;20604;-88
2022/01/29 08:40:25;;;;;;;25.02;16.65;;;9.30;99.90;;;;;;4915081;28;20735;-88
2022/01/29 08:42:52;;;;;;;22.92;16.90;;;9.30;99.90;;;;;;4933464;28;20049;-89
2022/01/29 08:45:18;;;;;;;24.23;16.35;;;9.30;99.90;;;;;;4920529;28;20041;-87
2022/01/29 08:47:44;;;;;;;23.08;15.75;;;9.30;99.90;;;;;;4933132;28;20421;-89
2022/01/29 08:50:11;;;;;;;22.55;15.38;;;9.30;99.90;;;;;;4915639;28;20044;-83
2022/01/29 08:52:38;;;;;;;24.00;15.98;;;9.40;99.90;;;;;;4932251;28;20049;-87
2022/01/29 08:55:07;;;;;;;23.67;15.13;;;9.40;99.90;;;;;;4922858;28;20040;-81
2022/01/29 08:57:32;;;;;;;18.92;14.25;;;9.40;99.90;;;;;;4934241;28;20148;-85
2022/01/29 08:59:59;;;;;;;21.77;14.80;;;9.50;99.90;;;;;;4953596;28;20065;-86
2022/01/29 09:02:25;;;;;;;20.75;14.73;;;9.50;99.90;;;;;;4920895;28;20976;-86
2022/01/29 09:04:54;;;;;;;19.52;13.40;;;9.50;99.90;;;;;;4941408;28;20044;-87
2022/01/29 09:07:20;;;;;;;24.05;13.80;;;9.60;99.90;;;;;;4943065;28;20132;-87
2022/01/29 09:09:46;;;;;;;22.10;13.55;;;9.60;99.90;;;;;;4956204;28;20147;-86
2022/01/29 09:12:13;;;;;;;21.42;14.35;;;9.60;99.90;;;;;;4946136;28;20053;-88
2022/01/29 09:14:43;;;;;;;22.75;14.05;;;9.60;99.90;;;;;;4923468;28;20404;-90
2022/01/29 09:17:10;;;;;;;20.40;13.65;;;9.70;99.90;;;;;;4941706;28;20437;-90
2022/01/29 09:19:35;;;;;;;18.83;13.27;;;9.70;99.90;;;;;;4910880;28;20055;-88
2022/01/29 09:22:01;;;;;;;18.40;14.35;;;9.70;99.90;;;;;;4920038;28;20057;-89
2022/01/29 09:24:27;;;;;;;18.10;12.88;;;9.70;99.90;;;;;;4936911;28;20675;-88
2022/01/29 09:26:53;;;;;;;16.75;12.88;;;9.70;99.90;;;;;;4924388;28;20053;-84
2022/01/29 09:29:19;;;;;;;20.63;13.00;;;9.70;99.90;;;;;;4940537;28;20581;-87
2022/01/29 09:31:47;;;;;;;20.50;13.27;;;9.70;99.90;;;;;;4904236;28;20045;-87
2022/01/29 09:34:13;;;;;;;18.77;13.48;;;9.70;99.90;;;;;;4939482;28;20045;-89
2022/01/29 09:36:39;;;;;;;18.00;13.50;;;9.70;99.90;;;;;;4908073;28;20080;-87
2022/01/29 09:39:05;;;;;;;19.40;12.13;;;9.70;99.90;;;;;;4936451;28;20576;-87
2022/01/29 09:41:32;;;;;;;20.15;13.20;;;9.70;99.90;;;;;;4937045;28;20050;-87
2022/01/29 09:43:57;;;;;;;18.02;13.30;;;9.80;99.90;;;;;;4939155;28;20446;-87
2022/01/29 09:46:27;;;;;;;17.95;12.65;;;9.80;99.90;;;;;;4939841;28;20053;-89
2022/01/29 09:48:54;;;;;;;17.17;10.82;;;9.80;99.90;;;;;;4911514;28;20053;-88
2022/01/29 09:51:20;;;;;;;14.93;10.60;;;9.80;99.90;;;;;;4921901;28;20489;-85
2022/01/29 09:53:46;;;;;;;17.80;10.55;;;9.80;99.90;;;;;;4928720;28;20049;-86
2022/01/29 09:56:13;;;;;;;18.63;10.50;;;9.90;99.90;;;;;;4918892;28;20529;-88
2022/01/29 09:58:42;;;;;;;14.05;10.30;;;9.90;99.90;;;;;;4920609;28;20985;-85
2022/01/29 10:01:09;;;;;;;15.32;10.48;;;9.90;99.90;;;;;;4935185;28;20278;-85
2022/01/29 10:03:35;;;;;;;15.15;10.30;;;9.90;99.90;;;;;;4929041;28;20067;-86
2022/01/29 10:06:02;;;;;;;15.27;9.82;;;10.00;99.90;;;;;;4965852;28;20053;-86
2022/01/29 10:08:29;;;;;;;18.25;9.70;;;10.00;99.90;;;;;;4963235;28;20149;-84
2022/01/29 10:10:58;;;;;;;13.45;9.20;;;10.10;99.90;;;;;;4935618;28;20045;-85
2022/01/29 10:13:34;;;;;;;13.90;9.23;;;10.10;99.90;;;;;;4937640;28;20132;-85
2022/01/29 10:16:20;;;;;;;15.45;9.25;;;10.20;99.90;;;;;;4935773;28;20475;-87
2022/01/29 10:19:00;;;;;;;12.38;8.45;;;10.20;99.90;;;;;;4931801;28;20109;-85
2022/01/29 10:21:30;;;;;;;13.75;8.45;;;10.30;99.90;;;;;;4941230;28;20110;-86
2022/01/29 10:24:05;;;;;;;14.98;7.82;;;10.30;99.90;;;;;;4929169;28;20056;-84
2022/01/29 10:26:36;;;;;;;12.57;7.72;;;10.30;99.90;;;;;;4935668;28;20037;-85
2022/01/29 10:29:18;;;;;;;13.07;7.40;;;10.40;99.90;;;;;;4930245;28;20041;-85
2022/01/29 10:31:47;;;;;;;10.63;7.32;;;10.40;99.90;;;;;;4947884;28;20337;-86
2022/01/29 10:34:26;;;;;;;13.63;7.38;;;10.40;99.90;;;;;;4940589;28;20049;-89
2022/01/29 10:37:18;;;;;;;14.10;6.97;;;10.40;99.90;;;;;;4939958;28;20056;-86
2022/01/29 10:39:58;;;;;;;11.65;7.13;;;10.40;99.90;;;;;;4947526;28;20045;-85
2022/01/29 10:42:38;;;;;;;11.48;6.43;;;10.40;99.90;;;;;;4936272;28;20052;-86
2022/01/29 10:45:06;;;;;;;15.07;6.50;;;10.40;99.90;;;;;;4936527;28;20056;-85
2022/01/29 10:47:53;;;;;;;13.50;6.40;;;10.40;99.90;;;;;;4917633;28;20529;-86
2022/01/29 10:50:19;;;;;;;11.52;6.13;;;10.40;99.90;;;;;;4929787;28;20053;-87
2022/01/29 10:52:45;;;;;;;13.07;6.25;;;10.40;99.90;;;;;;4926442;28;20041;-88
2022/01/29 10:55:11;;;;;;;10.25;5.85;;;10.50;99.90;;;;;;4956545;28;20512;-91
2022/01/29 10:57:48;;;;;;;10.60;6.18;;;10.50;99.90;;;;;;4934152;28;20408;-87
2022/01/29 11:00:25;;;;;;;11.43;5.50;;;10.50;99.90;;;;;;4950375;28;20484;-86
2022/01/29 11:02:53;;;;;;;12.50;5.60;;;10.60;99.90;;;;;;4946746;28;20081;-84
2022/01/29 11:05:23;;;;;;;13.88;6.07;;;10.60;99.90;;;;;;4934956;28;20482;-84
2022/01/29 11:07:52;;;;;;;12.35;5.80;;;10.60;99.90;;;;;;4929336;28;20123;-87
2022/01/29 11:10:19;;;;;;;11.63;5.38;;;10.70;99.90;;;;;;4916090;28;20049;-83
2022/01/29 11:12:51;;;;;;;11.25;5.22;;;10.60;99.90;;;;;;4944658;28;20099;-85
2022/01/29 11:15:22;;;;;;;11.05;6.05;;;10.70;99.90;;;;;;4929309;28;20053;-85
2022/01/29 11:17:48;;;;;;;10.20;4.85;;;10.70;99.90;;;;;;4948754;28;20041;-85
2022/01/29 11:20:15;;;;;;;13.43;5.55;;;10.70;99.90;;;;;;4941001;28;20057;-84
2022/01/29 11:22:44;;;;;;;11.32;5.40;;;10.70;99.90;;;;;;4911867;28;20621;-85
2022/01/29 11:25:16;;;;;;;14.48;4.88;;;10.80;99.90;;;;;;4931305;28;20049;-84
2022/01/29 11:27:42;;;;;;;9.38;4.95;;;10.80;99.90;;;;;;4930347;28;20807;-84
2022/01/29 11:30:08;;;;;;;10.60;4.35;;;11.00;99.90;;;;;;4933047;28;20572;-83
2022/01/29 11:32:47;;;;;;;9.90;4.50;;;11.00;99.90;;;;;;4946482;28;20070;-86
2022/01/29 11:35:28;;;;;;;9.82;3.90;;;11.00;99.90;;;;;;4937846;28;20056;-86
2022/01/29 11:38:03;;;;;;;9.93;4.07;;;11.00;99.90;;;;;;4927690;28;20541;-87
2022/01/29 11:40:37;;;;;;;8.68;3.75;;;11.00;99.90;;;;;;4930307;28;20060;-84
2022/01/29 11:43:06;;;;;;;10.65;3.70;;;11.00;99.90;;;;;;4944455;28;20460;-87
2022/01/29 11:45:47;;;;;;;11.85;3.47;;;10.90;99.90;;;;;;4930838;28;20128;-88
2022/01/29 11:48:22;;;;;;;8.93;3.55;;;10.90;99.90;;;;;;4939269;28;20049;-86
2022/01/29 11:50:49;;;;;;;10.00;3.58;;;10.80;99.90;;;;;;4939199;28;20040;-86
2022/01/29 11:53:19;;;;;;;10.68;3.47;;;10.80;99.90;;;;;;4927953;28;21025;-84
2022/01/29 11:55:47;;;;;;;10.32;3.13;;;10.80;99.90;;;;;;4926230;28;20463;-84
2022/01/29 11:58:15;;;;;;;7.85;3.00;;;10.80;99.90;;;;;;4930070;28;20045;-84
2022/01/29 12:00:42;;;;;;;7.70;2.78;;;10.90;99.90;;;;;;4907912;28;20037;-87
2022/01/29 12:03:43;;;;;;;8.82;2.80;;;10.90;99.90;;;;;;4931393;28;20068;-86
2022/01/29 12:08:40;;;;;;;8.88;2.88;;;10.90;99.90;;;;;;4926133;28;20438;-86
2022/01/29 12:11:13;;;;;;;9.38;2.40;;;11.00;99.90;;;;;;4924166;28;20373;-84
2022/01/29 12:13:42;;;;;;;10.52;2.75;;;11.10;99.90;;;;;;4912630;28;20491;-84
2022/01/29 12:16:27;;;;;;;8.55;2.65;;;11.20;99.90;;;;;;4939065;28;20056;-84
2022/01/29 12:18:53;;;;;;;8.45;2.38;;;11.20;99.90;;;;;;4926990;28;20132;-86
2022/01/29 12:21:23;;;;;;;8.57;2.45;;;11.20;99.90;;;;;;4913227;28;20494;-83
2022/01/29 12:23:50;;;;;;;12.15;2.55;;;11.10;99.90;;;;;;4927166;28;20053;-83
2022/01/29 12:26:23;;;;;;;9.23;2.65;;;11.20;99.90;;;;;;4918449;28;20907;-86
2022/01/29 12:28:50;;;;;;;10.40;2.45;;;11.20;99.90;;;;;;4930879;28;20355;-84
2022/01/29 12:31:18;;;;;;;8.55;2.20;;;11.20;99.90;;;;;;4938941;28;20101;-84
2022/01/29 12:33:44;;;;;;;7.82;2.17;;;11.10;99.90;;;;;;4926971;28;20599;-85
2022/01/29 12:36:11;;;;;;;7.25;1.80;;;11.20;99.90;;;;;;4929691;28;20119;-86
2022/01/29 12:38:41;;;;;;;7.63;2.10;;;11.20;99.90;;;;;;4911868;28;20342;-85
2022/01/29 12:41:16;;;;;;;10.70;2.15;;;11.10;99.90;;;;;;4949372;28;20049;-85
2022/01/29 12:44:18;;;;;;;8.77;2.10;;;11.20;99.90;;;;;;4924613;28;20042;-84
2022/01/29 12:46:36;;;;;;;8.65;2.20;;;11.20;99.90;;;;;;4914896;28;20049;-82
2022/01/29 12:49:11;;;;;;;10.52;2.15;;;11.20;99.90;;;;;;4915096;28;20503;-88
2022/01/29 12:51:58;;;;;;;9.63;2.00;;;11.20;99.90;;;;;;4928561;28;20157;-86
2022/01/29 12:54:26;;;;;;;7.55;1.88;;;11.20;99.90;;;;;;4936743;28;20056;-85
2022/01/29 12:56:55;;;;;;;8.77;2.10;;;11.20;99.90;;;;;;4937207;28;20049;-87
2022/01/29 12:59:23;;;;;;;8.45;2.10;;;11.30;99.90;;;;;;4923358;28;20052;-85